createdAt,value
2023-01-27T00:00:02.393Z,101829.38
2023-01-27T00:01:06.891Z,101839.91
2023-01-27T00:02:08.424Z,101846.88
2023-01-27T00:03:24.825Z,101841.56
2023-01-27T00:04:47.657Z,101841.63
2023-01-27T00:06:12.021Z,101834.53
2023-01-27T00:07:35.005Z,101841.50
2023-01-27T00:08:57.453Z,101840.59
2023-01-27T00:10:20.124Z,101837.97
2023-01-27T00:12:00.166Z,101843.22
2023-01-27T00:13:28.370Z,101843.22
2023-01-27T00:14:50.812Z,101843.97
2023-01-27T00:16:12.378Z,101842.19
2023-01-27T00:17:35.181Z,101839.59
2023-01-27T00:18:57.653Z,101839.56
2023-01-27T00:20:42.668Z,101841.25
2023-01-27T00:22:22.597Z,101842.97
2023-01-27T00:24:02.687Z,101845.56
2023-01-27T00:25:25.212Z,101840.22
2023-01-27T00:26:46.716Z,101843.69
2023-01-27T00:28:09.174Z,101850.69
2023-01-27T00:29:31.666Z,101845.44
2023-01-27T00:30:53.428Z,101840.16
2023-01-27T00:32:33.680Z,101841.94
2023-01-27T00:34:01.840Z,101843.69
2023-01-27T00:35:26.476Z,101847.16
2023-01-27T00:36:49.442Z,101847.16
2023-01-27T00:38:10.977Z,101849.78
2023-01-27T00:39:33.513Z,101848.88
2023-01-27T00:41:19.792Z,101844.47
2023-01-27T00:42:43.642Z,101846.25
2023-01-27T00:44:06.376Z,101851.47
2023-01-27T00:45:51.104Z,101850.59
2023-01-27T00:47:13.698Z,101853.16
2023-01-27T00:48:37.431Z,101853.16
2023-01-27T00:49:59.926Z,101847.03
2023-01-27T00:51:24.261Z,101845.25
2023-01-27T00:52:46.383Z,101849.59
2023-01-27T00:54:09.471Z,101850.47
2023-01-27T00:55:31.975Z,101847.75
2023-01-27T00:56:53.530Z,101851.19
2023-01-27T00:58:16.489Z,101852.09
2023-01-27T00:59:37.985Z,101853.00
2023-01-27T01:01:02.315Z,101859.13
2023-01-27T01:02:25.125Z,101859.09
2023-01-27T01:03:46.994Z,101862.63
2023-01-27T01:05:10.090Z,101859.09
2023-01-27T01:06:34.003Z,101858.16
2023-01-27T01:07:55.527Z,101858.16
2023-01-27T01:09:18.011Z,101857.25
2023-01-27T01:10:39.562Z,101852.88
2023-01-27T01:12:02.039Z,101866.84
2023-01-27T01:13:23.560Z,101866.00
2023-01-27T01:14:46.115Z,101862.59
2023-01-27T01:16:11.203Z,101866.91
2023-01-27T01:17:32.747Z,101868.63
2023-01-27T01:18:55.357Z,101867.72
2023-01-27T01:20:17.083Z,101872.97
2023-01-27T01:21:41.138Z,101865.09
2023-01-27T01:23:02.909Z,101875.63
2023-01-27T01:24:25.999Z,101868.59
2023-01-27T01:25:53.423Z,101879.09
2023-01-27T01:27:15.906Z,101874.66
2023-01-27T01:28:38.858Z,101868.50
2023-01-27T01:30:01.944Z,101877.25
2023-01-27T01:31:24.481Z,101881.63
2023-01-27T01:32:46.025Z,101886.06
2023-01-27T01:34:08.516Z,101883.50
2023-01-27T01:35:31.425Z,101881.00
2023-01-27T01:36:55.232Z,101881.03
2023-01-27T01:38:17.705Z,101881.81
2023-01-27T01:39:40.168Z,101877.50
2023-01-27T01:41:02.453Z,101885.44
2023-01-27T01:42:26.183Z,101888.06
2023-01-27T01:43:49.307Z,101890.78
2023-01-27T01:45:44.481Z,101888.16
2023-01-27T01:47:06.959Z,101891.69
2023-01-27T01:48:35.002Z,101884.72
2023-01-27T01:49:58.524Z,101887.41
2023-01-27T01:51:24.309Z,101891.81
2023-01-27T01:52:48.348Z,101890.09
2023-01-27T01:54:15.798Z,101898.94
2023-01-27T01:55:39.654Z,101892.72
2023-01-27T01:57:05.937Z,101894.44
2023-01-27T01:58:28.478Z,101889.97
2023-01-27T01:59:55.855Z,101882.94
2023-01-27T02:01:19.287Z,101888.28
2023-01-27T02:02:41.797Z,101893.53
2023-01-27T02:04:10.156Z,101878.66
2023-01-27T02:05:37.239Z,101884.84
2023-01-27T02:07:06.112Z,101891.03
2023-01-27T02:08:33.855Z,101875.25
2023-01-27T02:09:57.583Z,101893.66
2023-01-27T02:11:20.415Z,101886.59
2023-01-27T02:12:42.034Z,101891.91
2023-01-27T02:14:04.644Z,101888.47
2023-01-27T02:15:26.549Z,101890.19
2023-01-27T02:16:49.251Z,101898.97
2023-01-27T02:18:10.962Z,101896.34
2023-01-27T02:19:42.079Z,101892.91
2023-01-27T02:21:06.014Z,101902.56
2023-01-27T02:22:33.933Z,101896.44
2023-01-27T02:24:01.704Z,101895.56
2023-01-27T02:25:29.364Z,101889.53
2023-01-27T02:26:53.337Z,101895.69
2023-01-27T02:28:14.857Z,101895.69
2023-01-27T02:29:37.346Z,101896.56
2023-01-27T02:30:59.140Z,101900.03
2023-01-27T02:32:25.934Z,101905.31
2023-01-27T02:33:48.428Z,101908.81
2023-01-27T02:35:16.350Z,101902.69
2023-01-27T02:36:42.191Z,101901.75
2023-01-27T02:38:06.756Z,101911.47
2023-01-27T02:39:36.487Z,101906.22
2023-01-27T02:41:04.873Z,101906.22
2023-01-27T02:42:28.681Z,101907.97
2023-01-27T02:43:52.689Z,101913.25
2023-01-27T02:45:15.587Z,101919.38
2023-01-27T02:46:38.779Z,101912.34
2023-01-27T02:48:00.773Z,101910.69
2023-01-27T02:49:23.272Z,101907.19
2023-01-27T02:50:44.780Z,101916.00
2023-01-27T02:52:07.264Z,101918.69
2023-01-27T02:53:28.757Z,101916.97
2023-01-27T02:54:51.230Z,101915.25
2023-01-27T02:56:13.842Z,101919.78
2023-01-27T02:57:36.824Z,101925.09
2023-01-27T02:58:59.385Z,101926.06
2023-01-27T03:00:21.244Z,101931.41
2023-01-27T03:01:43.761Z,101921.84
2023-01-27T03:03:05.337Z,101924.53
2023-01-27T03:04:27.833Z,101921.91
2023-01-27T03:05:50.821Z,101928.06
2023-01-27T03:07:13.313Z,101917.66
2023-01-27T03:08:35.796Z,101924.75
2023-01-27T03:09:57.307Z,101922.19
2023-01-27T03:11:39.781Z,101932.81
2023-01-27T03:12:44.525Z,101921.47
2023-01-27T03:13:46.961Z,101932.03
2023-01-27T03:15:08.285Z,101934.59
2023-01-27T03:16:29.992Z,101940.81
2023-01-27T03:17:50.153Z,101934.69
2023-01-27T03:18:56.287Z,101932.13
2023-01-27T03:19:57.820Z,101937.44
2023-01-27T03:21:02.868Z,101938.38
2023-01-27T03:22:04.400Z,101938.38
2023-01-27T03:23:19.030Z,101934.81
2023-01-27T03:24:21.039Z,101933.91
2023-01-27T03:25:23.571Z,101935.56
2023-01-27T03:26:25.059Z,101937.31
2023-01-27T03:27:28.507Z,101933.00
2023-01-27T03:28:31.760Z,101934.69
2023-01-27T03:29:52.867Z,101938.19
2023-01-27T03:31:00.679Z,101932.06
2023-01-27T03:32:02.331Z,101939.91
2023-01-27T03:33:14.832Z,101939.03
2023-01-27T03:34:16.344Z,101937.25
2023-01-27T03:35:19.111Z,101934.66
2023-01-27T03:36:39.511Z,101948.69
2023-01-27T03:37:59.855Z,101938.25
2023-01-27T03:39:30.239Z,101944.31
2023-01-27T03:41:00.496Z,101944.31
2023-01-27T03:42:20.773Z,101938.19
2023-01-27T03:43:40.833Z,101929.41
2023-01-27T03:45:02.480Z,101939.94
2023-01-27T03:46:22.150Z,101930.38
2023-01-27T03:47:24.181Z,101940.03
2023-01-27T03:48:28.237Z,101939.16
2023-01-27T03:49:30.704Z,101938.25
2023-01-27T03:50:37.217Z,101939.94
2023-01-27T03:51:39.699Z,101943.44
2023-01-27T03:52:41.591Z,101939.03
2023-01-27T03:53:44.075Z,101938.19
2023-01-27T03:54:45.612Z,101940.78
2023-01-27T03:55:57.194Z,101938.94
2023-01-27T03:57:05.778Z,101935.41
2023-01-27T03:58:21.588Z,101934.53
2023-01-27T03:59:27.392Z,101940.69
2023-01-27T04:00:32.522Z,101944.19
2023-01-27T04:01:36.449Z,101938.94
2023-01-27T04:02:56.880Z,101944.19
2023-01-27T04:04:16.886Z,101946.81
2023-01-27T04:05:46.617Z,101942.50
2023-01-27T04:06:57.977Z,101944.31
2023-01-27T04:08:06.946Z,101942.59
2023-01-27T04:09:11.687Z,101937.31
2023-01-27T04:10:13.182Z,101951.28
2023-01-27T04:11:44.884Z,101937.25
2023-01-27T04:12:49.855Z,101939.03
2023-01-27T04:14:01.768Z,101940.88
2023-01-27T04:15:04.743Z,101946.16
2023-01-27T04:16:07.790Z,101940.88
2023-01-27T04:17:12.664Z,101935.63
2023-01-27T04:18:14.189Z,101937.31
2023-01-27T04:19:26.107Z,101947.91
2023-01-27T04:20:37.637Z,101942.69
2023-01-27T04:21:41.228Z,101942.81
2023-01-27T04:22:44.065Z,101946.38
2023-01-27T04:23:45.585Z,101942.03
2023-01-27T04:24:48.369Z,101954.31
2023-01-27T04:26:00.320Z,101954.41
2023-01-27T04:27:04.717Z,101947.50
2023-01-27T04:28:06.442Z,101948.41
2023-01-27T04:29:08.910Z,101955.50
2023-01-27T04:30:12.608Z,101954.69
2023-01-27T04:31:16.804Z,101952.91
2023-01-27T04:32:19.611Z,101960.75
2023-01-27T04:33:21.108Z,101951.13
2023-01-27T04:34:23.647Z,101958.06
2023-01-27T04:35:30.748Z,101954.56
2023-01-27T04:36:41.133Z,101959.03
2023-01-27T04:37:42.623Z,101952.06
2023-01-27T04:38:45.929Z,101954.66
2023-01-27T04:39:48.403Z,101950.25
2023-01-27T04:40:49.905Z,101957.19
2023-01-27T04:42:02.432Z,101948.53
2023-01-27T04:43:04.512Z,101955.53
2023-01-27T04:44:08.157Z,101956.41
2023-01-27T04:45:10.176Z,101955.63
2023-01-27T04:46:12.836Z,101956.53
2023-01-27T04:47:15.847Z,101949.63
2023-01-27T04:48:18.747Z,101966.28
2023-01-27T04:49:20.279Z,101956.69
2023-01-27T04:50:22.728Z,101959.31
2023-01-27T04:51:24.585Z,101956.69
2023-01-27T04:52:27.138Z,101958.47
2023-01-27T04:53:28.712Z,101964.63
2023-01-27T04:54:31.418Z,101960.28
2023-01-27T04:55:32.949Z,101961.13
2023-01-27T04:56:37.740Z,101957.66
2023-01-27T04:57:39.281Z,101962.91
2023-01-27T04:58:52.482Z,101961.94
2023-01-27T04:59:54.011Z,101962.78
2023-01-27T05:00:56.484Z,101965.38
2023-01-27T05:01:59.117Z,101963.50
2023-01-27T05:03:05.103Z,101974.91
2023-01-27T05:04:13.863Z,101963.50
2023-01-27T05:05:16.384Z,101968.75
2023-01-27T05:06:18.859Z,101959.16
2023-01-27T05:07:20.767Z,101965.19
2023-01-27T05:08:23.223Z,101968.66
2023-01-27T05:09:25.342Z,101962.47
2023-01-27T05:10:27.911Z,101961.56
2023-01-27T05:11:29.752Z,101961.56
2023-01-27T05:12:32.274Z,101958.94
2023-01-27T05:13:34.235Z,101964.13
2023-01-27T05:14:36.730Z,101965.91
2023-01-27T05:15:41.072Z,101962.41
2023-01-27T05:16:43.640Z,101964.13
2023-01-27T05:17:45.189Z,101967.59
2023-01-27T05:18:50.470Z,101964.06
2023-01-27T05:19:51.968Z,101964.94
2023-01-27T05:20:54.697Z,101970.97
2023-01-27T05:21:56.205Z,101975.41
2023-01-27T05:23:19.036Z,101970.16
2023-01-27T05:24:21.612Z,101965.72
2023-01-27T05:25:23.615Z,101968.34
2023-01-27T05:26:36.171Z,101968.34
2023-01-27T05:27:37.910Z,101974.47
2023-01-27T05:28:42.257Z,101969.22
2023-01-27T05:29:43.763Z,101969.22
2023-01-27T05:30:46.249Z,101974.44
2023-01-27T05:31:48.842Z,101978.75
2023-01-27T05:33:00.474Z,101971.78
2023-01-27T05:34:04.373Z,101972.69
2023-01-27T05:35:06.984Z,101980.59
2023-01-27T05:36:12.521Z,101977.91
2023-01-27T05:37:14.841Z,101977.91
2023-01-27T05:38:17.305Z,101978.75
2023-01-27T05:39:19.084Z,101983.09
2023-01-27T05:40:21.540Z,101978.72
2023-01-27T05:41:24.770Z,101977.84
2023-01-27T05:42:26.411Z,101975.22
2023-01-27T05:43:30.252Z,101982.25
2023-01-27T05:44:32.518Z,101984.88
2023-01-27T05:45:35.304Z,101982.25
2023-01-27T05:46:40.618Z,101977.91
2023-01-27T05:47:43.202Z,101978.75
2023-01-27T05:48:47.729Z,101983.06
2023-01-27T05:49:50.587Z,101980.47
2023-01-27T05:50:56.648Z,101985.72
2023-01-27T05:51:59.095Z,101990.97
2023-01-27T05:53:07.838Z,101991.84
2023-01-27T05:54:11.064Z,101985.69
2023-01-27T05:55:12.950Z,101987.44
2023-01-27T05:56:17.908Z,101988.31
2023-01-27T05:57:19.450Z,101986.59
2023-01-27T05:58:22.750Z,101988.31
2023-01-27T05:59:25.494Z,101985.63
2023-01-27T06:00:27.240Z,101983.84
2023-01-27T06:01:34.298Z,101984.75
2023-01-27T06:02:35.978Z,101987.38
2023-01-27T06:03:39.324Z,101983.06
2023-01-27T06:04:40.934Z,101986.59
2023-01-27T06:05:56.307Z,101983.16
2023-01-27T06:07:03.178Z,101983.16
2023-01-27T06:08:05.821Z,101987.59
2023-01-27T06:09:08.311Z,101991.97
2023-01-27T06:10:11.294Z,101989.34
2023-01-27T06:11:15.796Z,101983.22
2023-01-27T06:12:22.661Z,101992.81
2023-01-27T06:13:25.482Z,101988.44
2023-01-27T06:14:27.049Z,101992.75
2023-01-27T06:15:29.511Z,101986.59
2023-01-27T06:16:32.240Z,101990.09
2023-01-27T06:17:33.982Z,101990.00
2023-01-27T06:18:47.401Z,101993.56
2023-01-27T06:19:48.926Z,101990.00
2023-01-27T06:20:51.722Z,101991.81
2023-01-27T06:21:54.742Z,101993.50
2023-01-27T06:22:57.420Z,102001.38
2023-01-27T06:23:59.935Z,101994.44
2023-01-27T06:25:01.503Z,101996.13
2023-01-27T06:26:06.125Z,101995.16
2023-01-27T06:27:07.647Z,101995.16
2023-01-27T06:28:14.509Z,101998.72
2023-01-27T06:29:23.018Z,101990.88
2023-01-27T06:30:24.748Z,101992.63
2023-01-27T06:31:28.267Z,102000.41
2023-01-27T06:32:29.984Z,101998.59
2023-01-27T06:33:32.525Z,102001.13
2023-01-27T06:34:34.330Z,101994.97
2023-01-27T06:35:38.698Z,102003.63
2023-01-27T06:36:40.603Z,102008.03
2023-01-27T06:37:44.475Z,102006.22
2023-01-27T06:38:46.500Z,102015.81
2023-01-27T06:39:49.168Z,102003.50
2023-01-27T06:40:50.787Z,102011.41
2023-01-27T06:41:53.525Z,102013.13
2023-01-27T06:42:55.591Z,102015.75
2023-01-27T06:43:58.607Z,102014.91
2023-01-27T06:45:00.195Z,102011.41
2023-01-27T06:46:05.495Z,102027.13
2023-01-27T06:47:07.467Z,102012.19
2023-01-27T06:48:10.418Z,102021.81
2023-01-27T06:49:11.932Z,102018.31
2023-01-27T06:50:14.981Z,102020.03
2023-01-27T06:51:17.915Z,102020.91
2023-01-27T06:52:19.472Z,102022.72
2023-01-27T06:53:24.331Z,102027.88
2023-01-27T06:54:26.102Z,102030.53
2023-01-27T06:55:29.236Z,102023.47
2023-01-27T06:56:31.890Z,102028.72
2023-01-27T06:57:33.443Z,102024.31
2023-01-27T06:58:35.942Z,102031.41
2023-01-27T06:59:38.227Z,102030.53
2023-01-27T07:00:42.200Z,102032.22
2023-01-27T07:01:44.064Z,102032.28
2023-01-27T07:02:46.643Z,102030.53
2023-01-27T07:03:48.206Z,102034.94
2023-01-27T07:04:50.699Z,102036.69
2023-01-27T07:05:53.436Z,102031.41
2023-01-27T07:07:06.170Z,102033.97
2023-01-27T07:08:09.445Z,102029.56
2023-01-27T07:09:12.349Z,102031.31
2023-01-27T07:10:15.273Z,102033.06
2023-01-27T07:11:18.240Z,102036.56
2023-01-27T07:12:22.293Z,102040.09
2023-01-27T07:13:24.795Z,102036.56
2023-01-27T07:14:26.586Z,102039.19
2023-01-27T07:15:30.585Z,102042.63
2023-01-27T07:16:33.205Z,102035.59
2023-01-27T07:17:41.984Z,102039.09
2023-01-27T07:18:47.510Z,102038.19
2023-01-27T07:19:49.075Z,102039.88
2023-01-27T07:20:51.548Z,102039.03
2023-01-27T07:21:53.058Z,102043.38
2023-01-27T07:22:57.775Z,102043.31
2023-01-27T07:23:59.724Z,102047.72
2023-01-27T07:25:03.917Z,102043.38
2023-01-27T07:26:19.175Z,102045.13
2023-01-27T07:27:27.115Z,102042.38
2023-01-27T07:28:29.723Z,102050.28
2023-01-27T07:29:31.658Z,102047.66
2023-01-27T07:30:44.292Z,102052.88
2023-01-27T07:31:46.396Z,102042.34
2023-01-27T07:32:50.441Z,102046.75
2023-01-27T07:33:53.430Z,102053.66
2023-01-27T07:34:57.412Z,102048.47
2023-01-27T07:36:00.098Z,102046.69
2023-01-27T07:37:01.744Z,102046.63
2023-01-27T07:38:04.627Z,102050.19
2023-01-27T07:39:06.225Z,102042.31
2023-01-27T07:40:13.505Z,102045.72
2023-01-27T07:41:20.062Z,102044.81
2023-01-27T07:42:22.602Z,102050.00
2023-01-27T07:43:24.794Z,102044.81
2023-01-27T07:44:27.270Z,102057.03
2023-01-27T07:45:30.088Z,102044.81
2023-01-27T07:46:31.930Z,102056.13
2023-01-27T07:47:34.421Z,102046.47
2023-01-27T07:48:35.930Z,102050.88
2023-01-27T07:49:38.412Z,102044.69
2023-01-27T07:50:41.670Z,102051.66
2023-01-27T07:51:43.294Z,102056.00
2023-01-27T07:52:45.819Z,102053.34
2023-01-27T07:53:47.975Z,102051.53
2023-01-27T07:54:50.599Z,102056.81
2023-01-27T07:55:53.533Z,102055.91
2023-01-27T07:56:56.173Z,102056.75
2023-01-27T07:58:05.288Z,102059.38
2023-01-27T07:59:17.787Z,102062.00
2023-01-27T08:00:21.651Z,102062.00
2023-01-27T08:01:30.361Z,102060.22
2023-01-27T08:02:35.280Z,102065.47
2023-01-27T08:03:39.951Z,102064.53
2023-01-27T08:04:52.433Z,102067.09
2023-01-27T08:05:55.654Z,102060.97
2023-01-27T08:06:58.163Z,102063.59
2023-01-27T08:08:08.130Z,102065.31
2023-01-27T08:09:10.615Z,102065.31
2023-01-27T08:10:12.485Z,102060.84
2023-01-27T08:11:17.081Z,102069.59
2023-01-27T08:12:19.786Z,102066.97
2023-01-27T08:13:27.172Z,102070.47
2023-01-27T08:14:39.715Z,102077.44
2023-01-27T08:15:41.607Z,102066.94
2023-01-27T08:16:44.187Z,102070.47
2023-01-27T08:17:53.221Z,102068.69
2023-01-27T08:19:00.960Z,102072.19
2023-01-27T08:20:03.250Z,102072.19
2023-01-27T08:21:08.321Z,102067.78
2023-01-27T08:22:10.807Z,102071.22
2023-01-27T08:23:12.324Z,102073.78
2023-01-27T08:24:18.587Z,102072.06
2023-01-27T08:25:21.034Z,102071.09
2023-01-27T08:26:24.895Z,102063.97
2023-01-27T08:27:26.370Z,102062.22
2023-01-27T08:28:31.441Z,102060.41
2023-01-27T08:29:35.957Z,102060.41
2023-01-27T08:30:37.546Z,102063.81
2023-01-27T08:31:41.752Z,102064.63
2023-01-27T08:32:43.618Z,102071.59
2023-01-27T08:33:50.583Z,102063.72
2023-01-27T08:34:53.299Z,102068.06
2023-01-27T08:35:59.626Z,102059.22
2023-01-27T08:37:04.327Z,102060.97
2023-01-27T08:38:07.176Z,102061.78
2023-01-27T08:39:09.552Z,102064.28
2023-01-27T08:40:15.337Z,102071.25
2023-01-27T08:41:19.490Z,102051.91
2023-01-27T08:42:33.171Z,102054.53
2023-01-27T08:43:36.199Z,102062.44
2023-01-27T08:44:38.746Z,102065.03
2023-01-27T08:45:40.293Z,102066.72
2023-01-27T08:46:42.867Z,102064.06
2023-01-27T08:47:46.900Z,102063.09
2023-01-27T08:48:58.416Z,102056.94
2023-01-27T08:50:00.885Z,102071.81
2023-01-27T08:51:02.787Z,102067.41
2023-01-27T08:52:05.440Z,102068.28
2023-01-27T08:53:07.030Z,102068.22
2023-01-27T08:54:10.663Z,102062.94
2023-01-27T08:55:22.654Z,102065.53
2023-01-27T08:56:25.225Z,102071.63
2023-01-27T08:57:26.837Z,102071.53
2023-01-27T08:58:30.686Z,102063.56
2023-01-27T08:59:33.195Z,102062.69
2023-01-27T09:00:35.069Z,102066.97
2023-01-27T09:01:38.569Z,102068.72
2023-01-27T09:02:50.755Z,102069.53
2023-01-27T09:03:54.971Z,102071.16
2023-01-27T09:04:56.523Z,102069.41
2023-01-27T09:05:59.179Z,102072.81
2023-01-27T09:07:01.686Z,102066.66
2023-01-27T09:08:14.568Z,102070.19
2023-01-27T09:09:17.169Z,102072.88
2023-01-27T09:10:19.748Z,102074.59
2023-01-27T09:11:21.301Z,102071.09
2023-01-27T09:12:23.771Z,102082.44
2023-01-27T09:13:37.636Z,102078.09
2023-01-27T09:14:40.129Z,102088.63
2023-01-27T09:15:43.713Z,102080.72
2023-01-27T09:16:46.267Z,102079.00
2023-01-27T09:17:48.737Z,102082.44
2023-01-27T09:18:50.303Z,102085.00
2023-01-27T09:19:53.282Z,102083.22
2023-01-27T09:20:56.093Z,102091.91
2023-01-27T09:22:00.986Z,102091.81
2023-01-27T09:23:03.977Z,102090.88
2023-01-27T09:24:05.745Z,102092.53
2023-01-27T09:25:09.554Z,102094.34
2023-01-27T09:26:12.038Z,102102.16
2023-01-27T09:27:13.580Z,102103.88
2023-01-27T09:28:18.851Z,102103.88
2023-01-27T09:29:21.751Z,102102.03
2023-01-27T09:30:25.921Z,102101.13
2023-01-27T09:31:28.069Z,102110.81
2023-01-27T09:32:31.125Z,102113.44
2023-01-27T09:33:33.687Z,102109.88
2023-01-27T09:34:36.664Z,102109.88
2023-01-27T09:35:44.589Z,102118.69
2023-01-27T09:36:51.238Z,102111.72
2023-01-27T09:37:57.635Z,102110.81
2023-01-27T09:39:03.535Z,102109.88
2023-01-27T09:40:14.547Z,102114.16
2023-01-27T09:41:47.530Z,102117.66
2023-01-27T09:43:26.503Z,102115.91
2023-01-27T09:44:52.581Z,102115.03
2023-01-27T09:46:20.528Z,102112.41
2023-01-27T09:47:41.887Z,102120.34
2023-01-27T09:49:10.421Z,102116.84
2023-01-27T09:50:38.977Z,102123.94
2023-01-27T09:51:54.568Z,102124.75
2023-01-27T09:53:25.578Z,102121.28
2023-01-27T09:54:48.254Z,102119.47
2023-01-27T09:55:55.413Z,102124.75
2023-01-27T09:57:10.304Z,102118.56
2023-01-27T09:58:24.762Z,102119.44
2023-01-27T09:59:44.768Z,102122.84
2023-01-27T10:00:57.065Z,102125.50
2023-01-27T10:02:13.510Z,102125.50
2023-01-27T10:03:28.311Z,102126.31
2023-01-27T10:05:01.055Z,102120.97
2023-01-27T10:06:19.916Z,102123.59
2023-01-27T10:07:51.291Z,102121.91
2023-01-27T10:09:35.074Z,102121.91
